Kralendijk, Netherlands

1:21 AM AST on February 27, 2017 (GMT -0400)
Flamingo | | Change Station

Elev 23 ft 12.15 °N, 68.28 °W | Updated 26 minutes ago

Partly Cloudy
Partly Cloudy
79 °F
Feels Like 79 °F
N
14
Wind Variable Wind from East

Today
High -- | Low -- °F
--% Chance of Precip.
Yesterday
High -- | Low -- °F
Precip. -- in
Pressure 29.95 in
Visibility 6.2 miles
Clouds Few 1800 ft
Dew Point 72 °F
Humidity 78%
Rainfall 0.00 in
Snow Depth Not available.
6:49 AM 6:42 PM
New Moon, 0% visible
METAR TNCB 270455Z AUTO 08012KT 9999 FEW018/// 26/22 Q1014
Pressure 29.95 in
Visibility 6.2 miles
Clouds Few 1800 ft
Dew Point 72 °F
Humidity 78%
Rainfall 0.00 in
Snow Depth Not available.
6:49 AM 6:42 PM
New Moon, 0% visible
METAR TNCB 270455Z AUTO 08012KT 9999 FEW018/// 26/22 Q1014

Get Your Daily Forecast Email!

Thanks for signing up!

Be on the lookout for a verification email in your inbox.

You'll start receiving the daily forecast at 8 AM.

×

10-Day Weather Forecast

×

Almanac

Astronomy

Feb. 27, 2017 Rise Set
Actual Time
Civil Twilight
Nautical Twilight
Astronomical Twilight
Moon
Length of Visible Light
Length of Day
Tomorrow will be .
, % of the Moon is Illuminated

Today's Extremes

Country Highs Country Lows

Community

WunderPhotos

Upload Photos

1,962,540 photos uploaded!

WunderBlog® & News

Nearby

Air Quality

  Air Quality AQ Index Pollutant
Not available.

Snow Depth

Station Depth Elevation

Earthquake Activity

City Distance Mag. Time & Date
Minimum magnitude displayed is 2.5.

Coastal Water Temperatures

Place Temperature

Stations

Nearby Weather Stations

Station Location Temp. Windchill Dew Point Humidity Wind Precip. Elev Updated Type